Wayside, Mississippi
Current Conditions -  °F | °C
As of 1:53 PM on Saturday 25 Oct 2014 (Local Time) from KGLH Reporting Station
Clear Clear  
Wind Chill: 81°   Ceiling: Unl
Heat Index: 82°   Visibility: 10mi
Dew Point: 60°   Wind: 12mph
Humidity: 49%   Direction: 250°WSW
Pressure: 30.07"   Gusts: NA
Location:  33.27°N, 91.03°W
Report Text: KGLH 251853Z AUTO 25010KT 10SM CLR 27/16 A3007 RMK AO2 SLP189 T02720156
Loading
Personal Weather Stations






























Interactive Weather Map
Tropical Storm Tracking
New forecast layout! Learn more

10-Day Weather Forecast

Advertisements
Track Severe Weather on mobile